^^
Datos históricos de la estación: Murcia-Puente Tocinos
Diario Informe para Septiembre 22, 2019 Unidades:  Ambas    Ingés   Métrico
Diario Semanal Mensual Anual
  Máxima: Mínima: Promedio:
Temperatura: 62.1 °F /  16.7 °C 55 °F /  12.8 °C 56.8 °F /  13.8 °C
Punto de rocio: 55.6 °F /  13.1 °C 50.7 °F /  10.4 °C 53.2 °F /  11.8 °C
Humedad: 95% 71.8% 88%
Velocidad viento: 9.2mph /  14.8km/h - 4.9mph /  7.9km/h
Racha viento: 17.3mph /  27.8km/h - -
Viento- - SSO
Presión: 30 in /  1015.3 hPa 29.7 in /  1006.1 hPa -
Precipitación: 0.88 in /  22.3 mm    
 
 
Tabla de datos para Septiembre 22, 2019
Hora Temperatura Punto de rocio Presión Viento Velocidad viento Racha viento Humedad Intensidad lluvia(por hora) Nubes
00:04 62.1 °F /  16.7 °C 52.9 °F /  11.6 °C 30in /  1015.3hPa ESE 0.6mph /  1km/h 3.6mph /  5.8km/h 71.8% 0in /  0.0mm
00:09 61.9 °F /  16.6 °C 52.9 °F /  11.6 °C 30in /  1015.3hPa Calm   4.6mph /  7.4km/h 72% 0in /  0.0mm
00:14 61.7 °F /  16.5 °C 52.7 °F /  11.5 °C 30in /  1014.9hPa ENE 1.3mph /  2.1km/h 5mph /  8km/h 72% 0in /  0.0mm
00:19 61.5 °F /  16.4 °C 52.5 °F /  11.4 °C 30in /  1014.9hPa ENE 2mph /  3.2km/h   72.1% 0in /  0.0mm
00:24 61.5 °F /  16.4 °C 52.9 °F /  11.6 °C 30in /  1014.9hPa ENE 0.7mph /  1.1km/h 2.4mph /  3.9km/h 73% 0in /  0.0mm
00:29 61.5 °F /  16.4 °C 53.1 °F /  11.7 °C 30in /  1014.8hPa Calm   4.6mph /  7.4km/h 73.9% 0in /  0.0mm
00:34 61.3 °F /  16.3 °C 53.2 °F /  11.8 °C 30in /  1014.8hPa NNO 1.2mph /  1.9km/h 5mph /  8km/h 75% 0in /  0.0mm
00:39 61.2 °F /  16.2 °C 53.2 °F /  11.8 °C 30in /  1014.8hPa North 1.8mph /  2.9km/h 5.4mph /  8.7km/h 75.3% 0in /  0.0mm
00:44 60.8 °F /  16 °C 53.2 °F /  11.8 °C 30in /  1014.3hPa NNE 2.5mph /  4.1km/h 6mph /  9.7km/h 76% 0in /  0.0mm
00:49 60.4 °F /  15.8 °C 52.9 °F /  11.6 °C 30in /  1014.3hPa NNE 2.9mph /  4.7km/h 5mph /  8km/h 76% 0in /  0.0mm
00:54 60.4 °F /  15.8 °C 52.9 °F /  11.6 °C 30in /  1014.3hPa NNE 2.5mph /  4.1km/h 5mph /  8km/h 76% 0in /  0.0mm
00:59 60.4 °F /  15.8 °C 52.7 °F /  11.5 °C 29.9in /  1014.0hPa NNE 2.4mph /  3.9km/h 5mph /  8km/h 76% 0in /  0.0mm
01:04 60.4 °F /  15.8 °C 52.9 °F /  11.6 °C 29.9in /  1014.0hPa NNE 2.1mph /  3.4km/h 4mph /  6.4km/h 76% 0in /  0.0mm
01:09 60.4 °F /  15.8 °C 52.5 °F /  11.4 °C 29.9in /  1014.0hPa NNE 2mph /  3.2km/h 2.9mph /  4.7km/h 75.3% 0in /  0.0mm
01:14 60.4 °F /  15.8 °C 52.5 °F /  11.4 °C 29.9in /  1013.9hPa NNE 0.7mph /  1.2km/h 4mph /  6.4km/h 75% 0in /  0.0mm
01:19 60.4 °F /  15.8 °C 52.9 °F /  11.6 °C 29.9in /  1013.9hPa Calm   5.2mph /  8.4km/h 75.7% 0in /  0.0mm
01:24 60.6 °F /  15.9 °C 52.7 °F /  11.5 °C 29.9in /  1014.1hPa SSE 2.1mph /  3.4km/h 5.8mph /  9.3km/h 75.2% 0in /  0.0mm
01:29 60.6 °F /  15.9 °C 52.9 °F /  11.6 °C 29.9in /  1014.1hPa SSE 3.1mph /  5km/h 6.9mph /  11.1km/h 75.5% 0in /  0.0mm
01:34 60.6 °F /  15.9 °C 52.9 °F /  11.6 °C 29.9in /  1014.1hPa SSE 3.9mph /  6.2km/h 7mph /  11.3km/h 75.9% 0in /  0.0mm
01:39 60.6 °F /  15.9 °C 52.5 °F /  11.4 °C 30in /  1014.2hPa SSE 4.3mph /  6.9km/h 6.2mph /  10km/h 74.9% 0in /  0.0mm
01:44 60.6 °F /  15.9 °C 52.3 °F /  11.3 °C 30in /  1014.2hPa SSE 4.1mph /  6.6km/h 6mph /  9.7km/h 73.9% 0in /  0.0mm
01:49 60.6 °F /  15.9 °C 52 °F /  11.1 °C 30in /  1014.2hPa SSE 4mph /  6.5km/h 6mph /  9.7km/h 73% 0in /  0.0mm
01:54 60.6 °F /  15.9 °C 52 °F /  11.1 °C 30in /  1014.2hPa Sur 4mph /  6.5km/h 6mph /  9.7km/h 73% 0in /  0.0mm
01:59 60.6 °F /  15.9 °C 52 °F /  11.1 °C 30in /  1014.2hPa SO 4mph /  6.5km/h 6mph /  9.7km/h 73.2% 0in /  0.0mm
02:04 60.6 °F /  15.9 °C 52.2 °F /  11.2 °C 30in /  1014.2hPa SO 3.4mph /  5.5km/h 5mph /  8km/h 73.8% 0in /  0.0mm
02:09 60.6 °F /  15.9 °C 52.3 °F /  11.3 °C 30in /  1014.2hPa OSO 3.1mph /  5km/h 5mph /  8km/h 74% 0in /  0.0mm
02:14 60.6 °F /  15.9 °C 52.3 °F /  11.3 °C 29.9in /  1014.0hPa OSO 2.6mph /  4.2km/h 5mph /  8km/h 74.3% 0in /  0.0mm
02:19 60.4 °F /  15.8 °C 52.5 °F /  11.4 °C 29.9in /  1014.0hPa OSO 2.4mph /  3.9km/h 5mph /  8km/h 75.1% 0in /  0.0mm
02:24 60.3 °F /  15.7 °C 52.9 °F /  11.6 °C 29.9in /  1014.0hPa Oeste 2.7mph /  4.4km/h 5mph /  8km/h 76.5% 0in /  0.0mm
02:29 60.3 °F /  15.7 °C 53.2 °F /  11.8 °C 29.9in /  1013.7hPa OSO 2.9mph /  4.7km/h 4mph /  6.4km/h 77.8% 0in /  0.0mm
02:34 59.9 °F /  15.5 °C 53.1 °F /  11.7 °C 29.9in /  1013.7hPa ONO 2.2mph /  3.5km/h 4.6mph /  7.4km/h 78% 0in /  0.0mm
02:39 59.5 °F /  15.3 °C 52.9 °F /  11.6 °C 29.9in /  1013.7hPa NE 1.8mph /  2.9km/h 5.9mph /  9.5km/h 78.5% 0.01in /  0.3mm
02:44 59.4 °F /  15.2 °C 53.2 °F /  11.8 °C 29.9in /  1012.6hPa ENE 3mph /  4.8km/h 6mph /  9.7km/h 80% 0.01in /  0.3mm
02:49 59.4 °F /  15.2 °C 53.6 °F /  12 °C 29.9in /  1012.6hPa ESE 3.6mph /  5.8km/h 6mph /  9.7km/h 81.6% 0.01in /  0.3mm
02:54 59 °F /  15 °C 53.8 °F /  12.1 °C 29.9in /  1012.6hPa ESE 3.2mph /  5.2km/h 6mph /  9.7km/h 82.5% 0.01in /  0.3mm
02:59 58.8 °F /  14.9 °C 53.8 °F /  12.1 °C 29.9in /  1012.4hPa SO 3.1mph /  5km/h 6.9mph /  11.1km/h 83% 0.01in /  0.3mm
03:04 58.6 °F /  14.8 °C 53.6 °F /  12 °C 29.9in /  1012.4hPa SO 3.7mph /  6km/h 8.1mph /  13km/h 83.4% 0.01in /  0.3mm
03:09 58.6 °F /  14.8 °C 53.8 °F /  12.1 °C 29.9in /  1013.3hPa OSO 4mph /  6.5km/h 8mph /  12.9km/h 84% 0.01in /  0.3mm
03:14 58.6 °F /  14.8 °C 53.8 °F /  12.1 °C 29.9in /  1013.3hPa OSO 4.5mph /  7.2km/h 7mph /  11.3km/h 84% 0.01in /  0.3mm
03:19 58.6 °F /  14.8 °C 53.6 °F /  12 °C 29.9in /  1013.3hPa OSO 4.7mph /  7.6km/h 8.5mph /  13.7km/h 83.2% 0.01in /  0.3mm
03:24 58.5 °F /  14.7 °C 53.4 °F /  11.9 °C 29.9in /  1013.3hPa OSO 5mph /  8.1km/h 9mph /  14.5km/h 83.5% 0.02in /  0.5mm
03:29 58.5 °F /  14.7 °C 53.8 °F /  12.1 °C 29.9in /  1012.8hPa OSO 5.2mph /  8.4km/h 8mph /  12.9km/h 84.5% 0.03in /  0.8mm
03:34 58.3 °F /  14.6 °C 54 °F /  12.2 °C 29.9in /  1012.8hPa Oeste 4.6mph /  7.4km/h 9.2mph /  14.8km/h 85.7% 0.04in /  1.0mm
03:39 58.3 °F /  14.6 °C 54.1 °F /  12.3 °C 29.9in /  1012.8hPa North 4.3mph /  6.9km/h 9mph /  14.5km/h 86% 0.04in /  1.0mm
03:44 58.1 °F /  14.5 °C 54.1 °F /  12.3 °C 29.9in /  1012.3hPa NNE 3.5mph /  5.7km/h 7mph /  11.3km/h 86.8% 0.04in /  1.0mm
03:49 57.9 °F /  14.4 °C 54.1 °F /  12.3 °C 29.9in /  1012.3hPa NNE 3.1mph /  5km/h 4mph /  6.4km/h 87% 0.04in /  1.0mm
03:54 57.9 °F /  14.4 °C 54.5 °F /  12.5 °C 29.9in /  1012.5hPa ESE 2.2mph /  3.6km/h 5.2mph /  8.4km/h 87.9% 0.04in /  1.0mm
03:59 58.1 °F /  14.5 °C 54.7 °F /  12.6 °C 29.9in /  1012.5hPa Este 1.8mph /  2.9km/h 5.4mph /  8.7km/h 88% 0.04in /  1.0mm
04:04 57.9 °F /  14.4 °C 54.5 °F /  12.5 °C 29.9in /  1012.5hPa ESE 3mph /  4.9km/h 8.5mph /  13.7km/h 88.2% 0.04in /  1.0mm
04:09 57.7 °F /  14.3 °C 54.5 °F /  12.5 °C 29.9in /  1012.5hPa ESE 3.6mph /  5.8km/h 9mph /  14.5km/h 89% 0.05in /  1.2mm
04:14 57.6 °F /  14.2 °C 54.5 °F /  12.5 °C 29.9in /  1011.9hPa ESE 4mph /  6.5km/h 6.2mph /  10km/h 89.4% 0.06in /  1.5mm
04:19 57.6 °F /  14.2 °C 54.7 °F /  12.6 °C 29.9in /  1011.9hPa ESE 4.3mph /  6.9km/h 6mph /  9.7km/h 90% 0.07in /  1.7mm
04:24 57.6 °F /  14.2 °C 54.9 °F /  12.7 °C 29.9in /  1012.0hPa Este 3.5mph /  5.6km/h 5mph /  8km/h 90.7% 0.08in /  2.0mm
04:29 57.6 °F /  14.2 °C 55 °F /  12.8 °C 29.9in /  1012.0hPa Este 3.1mph /  5km/h 5mph /  8km/h 91% 0.07in /  1.8mm
04:34 57.6 °F /  14.2 °C 55 °F /  12.8 °C 29.9in /  1012.0hPa ONO 2.4mph /  3.8km/h 5mph /  8km/h 91% 0.06in /  1.6mm
04:39 57.6 °F /  14.2 °C 55 °F /  12.8 °C 29.9in /  1012.0hPa ONO 2mph /  3.2km/h 6.9mph /  11.1km/h 91.2% 0.07in /  1.8mm
04:44 57.6 °F /  14.2 °C 55.2 °F /  12.9 °C 29.9in /  1011.7hPa Oeste 2.2mph /  3.6km/h 7mph /  11.3km/h 91.8% 0.06in /  1.5mm
04:49 57.6 °F /  14.2 °C 55.2 °F /  12.9 °C 29.9in /  1011.7hPa OSO 2.4mph /  3.9km/h 5mph /  8km/h 92% 0.07in /  1.8mm
04:54 57.6 °F /  14.2 °C 55.2 °F /  12.9 °C 29.9in /  1011.8hPa SO 2.4mph /  3.9km/h 5mph /  8km/h 92% 0.07in /  1.8mm
04:59 57.6 °F /  14.2 °C 55.2 °F /  12.9 °C 29.9in /  1011.8hPa SSE 2.4mph /  3.9km/h 4.6mph /  7.4km/h 92% 0.07in /  1.8mm
05:04 57.6 °F /  14.2 °C 55.4 °F /  13 °C 29.9in /  1011.8hPa ESE 2.4mph /  3.9km/h 5.9mph /  9.5km/h 92.3% 0.08in /  2.0mm
05:09 57.6 °F /  14.2 °C 55.6 °F /  13.1 °C 29.9in /  1011.8hPa ESE 2.4mph /  3.9km/h 6mph /  9.7km/h 92.7% 0.08in /  2.1mm
05:14 57.6 °F /  14.2 °C 55.2 °F /  12.9 °C 29.9in /  1011.6hPa Oeste 2.4mph /  3.9km/h 6mph /  9.7km/h 92% 0.08in /  2.1mm
05:19 57.6 °F /  14.2 °C 55.2 °F /  12.9 °C 29.9in /  1011.6hPa ONO 2.4mph /  3.9km/h 6mph /  9.7km/h 92% 0.08in /  2.1mm
05:24 57.4 °F /  14.1 °C 55 °F /  12.8 °C 29.9in /  1011.6hPa ONO 2.9mph /  4.6km/h 6mph /  9.7km/h 92% 0.08in /  2.1mm
05:29 57.2 °F /  14 °C 55 °F /  12.8 °C 29.9in /  1011.1hPa NO 3.1mph /  5km/h 5mph /  8km/h 92.6% 0.09in /  2.3mm
05:34 57 °F /  13.9 °C 55 °F /  12.8 °C 29.9in /  1011.1hPa NNE 2.4mph /  3.8km/h 5.2mph /  8.4km/h 93% 0.1in /  2.5mm
05:39 57 °F /  13.9 °C 55 °F /  12.8 °C 29.9in /  1011.1hPa NE 2mph /  3.2km/h 5mph /  8km/h 93% 0.1in /  2.6mm
05:44 56.8 °F /  13.8 °C 54.9 °F /  12.7 °C 29.8in /  1010.7hPa NE 2.7mph /  4.4km/h 5.8mph /  9.3km/h 93% 0.1in /  2.6mm
05:49 57 °F /  13.9 °C 55 °F /  12.8 °C 29.8in /  1010.7hPa NE 3.1mph /  5km/h 6mph /  9.7km/h 93.1% 0.09in /  2.3mm
05:54 57 °F /  13.9 °C 55 °F /  12.8 °C 29.9in /  1010.8hPa Este 2.2mph /  3.6km/h 4.6mph /  7.4km/h 93% 0.1in /  2.5mm
05:59 57 °F /  13.9 °C 55 °F /  12.8 °C 29.9in /  1010.8hPa ESE 1.8mph /  2.9km/h 5mph /  8km/h 93% 0.1in /  2.5mm
06:04 57 °F /  13.9 °C 55 °F /  12.8 °C 29.9in /  1010.8hPa SSO 2.2mph /  3.6km/h 7.6mph /  12.2km/h 93% 0.09in /  2.3mm
06:09 56.8 °F /  13.8 °C 55 °F /  12.8 °C 29.9in /  1011.0hPa SSO 2.4mph /  3.9km/h 8.5mph /  13.7km/h 93.3% 0.09in /  2.3mm
06:14 57 °F /  13.9 °C 55.2 °F /  12.9 °C 29.9in /  1011.0hPa SSO 4.3mph /  6.9km/h 9mph /  14.5km/h 94% 0.09in /  2.3mm
06:19 57 °F /  13.9 °C 55.4 °F /  13 °C 29.9in /  1011.0hPa SSO 5.4mph /  8.7km/h 7mph /  11.3km/h 94% 0.1in /  2.6mm
06:24 57.2 °F /  14 °C 55.6 °F /  13.1 °C 29.9in /  1011.3hPa SSO 4.7mph /  7.6km/h 8.1mph /  13km/h 94% 0.1in /  2.6mm
06:29 57 °F /  13.9 °C 55.2 °F /  12.9 °C 29.9in /  1011.3hPa SSO 4.3mph /  6.9km/h 8.1mph /  13km/h 94% 0.09in /  2.3mm
06:34 57 °F /  13.9 °C 55.2 °F /  12.9 °C 29.9in /  1011.3hPa SSO 4.9mph /  7.9km/h 9.2mph /  14.8km/h 94% 0.09in /  2.3mm
06:39 56.8 °F /  13.8 °C 55.2 °F /  12.9 °C 29.9in /  1011.3hPa SO 5.2mph /  8.4km/h 9.7mph /  15.6km/h 94% 0.1in /  2.6mm
06:44 56.8 °F /  13.8 °C 55 °F /  12.8 °C 29.9in /  1011.3hPa SO 5.3mph /  8.6km/h 10mph /  16.1km/h 94% 0.09in /  2.3mm
06:49 56.7 °F /  13.7 °C 55 °F /  12.8 °C 29.9in /  1011.3hPa SSO 5.4mph /  8.7km/h 7mph /  11.3km/h 94% 0.11in /  2.8mm
06:54 56.7 °F /  13.7 °C 55 °F /  12.8 °C 29.9in /  1011.6hPa SSO 4.2mph /  6.8km/h 8.1mph /  13km/h 94% 0.11in /  2.8mm
06:59 56.5 °F /  13.6 °C 54.9 °F /  12.7 °C 29.9in /  1011.6hPa SSO 3.6mph /  5.8km/h 8.1mph /  13km/h 94% 0.12in /  3.1mm
07:04 56.5 °F /  13.6 °C 54.9 °F /  12.7 °C 29.9in /  1011.6hPa OSO 4.3mph /  7km/h 8mph /  12.9km/h 94% 0.14in /  3.6mm
07:09 56.3 °F /  13.5 °C 54.7 °F /  12.6 °C 29.9in /  1011.6hPa OSO 4.7mph /  7.6km/h 9.2mph /  14.8km/h 94% 0.15in /  3.9mm
07:14 56.1 °F /  13.4 °C 54.3 °F /  12.4 °C 29.9in /  1011.0hPa OSO 5mph /  8.1km/h 9mph /  14.5km/h 94% 0.15in /  3.8mm
07:19 56.1 °F /  13.4 °C 54.3 °F /  12.4 °C 29.9in /  1011.0hPa SO 5.2mph /  8.4km/h 6mph /  9.7km/h 94% 0.15in /  3.9mm
07:24 56.1 °F /  13.4 °C 54.3 °F /  12.4 °C 29.9in /  1011.0hPa OSO 3.7mph /  6km/h 5.2mph /  8.4km/h 94% 0.14in /  3.6mm
07:29 55.9 °F /  13.3 °C 54.1 °F /  12.3 °C 29.9in /  1010.8hPa Oeste 2.9mph /  4.7km/h 5.9mph /  9.5km/h 94% 0.15in /  3.8mm
07:34 55.9 °F /  13.3 °C 54.1 °F /  12.3 °C 29.9in /  1010.8hPa OSO 3.4mph /  5.4km/h 6.9mph /  11.1km/h 94% 0.15in /  3.9mm
07:39 55.8 °F /  13.2 °C 54.1 °F /  12.3 °C 29.9in /  1010.8hPa OSO 3.6mph /  5.8km/h 7.4mph /  11.9km/h 94% 0.13in /  3.4mm
07:44 55.8 °F /  13.2 °C 54.1 °F /  12.3 °C 29.8in /  1010.2hPa SSO 3.9mph /  6.2km/h 8.1mph /  13km/h 94% 0.12in /  3.1mm
07:49 55.8 °F /  13.2 °C 54.1 °F /  12.3 °C 29.8in /  1010.2hPa SO 4mph /  6.5km/h 8.1mph /  13km/h 94% 0.12in /  3.1mm
07:54 55.6 °F /  13.1 °C 54 °F /  12.2 °C 29.8in /  1010.6hPa OSO 4.5mph /  7.2km/h 8.1mph /  13km/h 94% 0.11in /  2.8mm
07:59 55.6 °F /  13.1 °C 54 °F /  12.2 °C 29.8in /  1010.6hPa OSO 4.7mph /  7.6km/h 8.5mph /  13.7km/h 94% 0.1in /  2.6mm
08:04 55.8 °F /  13.2 °C 54 °F /  12.2 °C 29.8in /  1010.6hPa OSO 5mph /  8.1km/h 9.2mph /  14.8km/h 94% 0.09in /  2.3mm
08:09 55.8 °F /  13.2 °C 54 °F /  12.2 °C 29.8in /  1010.6hPa OSO 5.2mph /  8.4km/h 10.4mph /  16.7km/h 94% 0.08in /  2.1mm
08:14 55.8 °F /  13.2 °C 54 °F /  12.2 °C 29.8in /  1010.2hPa SO 5.3mph /  8.6km/h 10mph /  16.1km/h 94% 0.06in /  1.6mm
08:19 55.8 °F /  13.2 °C 54.1 °F /  12.3 °C 29.8in /  1010.2hPa SO 5.4mph /  8.7km/h 9.7mph /  15.6km/h 94% 0.06in /  1.6mm
08:24 55.8 °F /  13.2 °C 54.1 °F /  12.3 °C 29.8in /  1010.5hPa SO 5.4mph /  8.7km/h 10.4mph /  16.7km/h 94% 0.06in /  1.6mm
08:29 55.8 °F /  13.2 °C 54.1 °F /  12.3 °C 29.8in /  1010.5hPa SO 5.4mph /  8.7km/h 10mph /  16.1km/h 94% 0.06in /  1.5mm
08:34 55.8 °F /  13.2 °C 54.1 °F /  12.3 °C 29.8in /  1010.5hPa SO 5.7mph /  9.2km/h 9.2mph /  14.8km/h 94% 0.06in /  1.5mm
08:39 55.8 °F /  13.2 °C 54.1 °F /  12.3 °C 29.8in /  1010.6hPa SO 5.9mph /  9.5km/h 9mph /  14.5km/h 94% 0.05in /  1.2mm
08:44 55.8 °F /  13.2 °C 54.1 °F /  12.3 °C 29.8in /  1010.6hPa SO 5.6mph /  9km/h 10.4mph /  16.7km/h 94% 0.07in /  1.7mm
08:49 55.8 °F /  13.2 °C 54.1 °F /  12.3 °C 29.8in /  1010.6hPa OSO 5.4mph /  8.7km/h 10mph /  16.1km/h 94% 0.08in /  2.0mm
08:54 55.8 °F /  13.2 °C 54.1 °F /  12.3 °C 29.8in /  1010.6hPa OSO 5.3mph /  8.5km/h 8mph /  12.9km/h 94.5% 0.08in /  2.1mm
08:59 55.8 °F /  13.2 °C 54.3 °F /  12.4 °C 29.8in /  1010.3hPa OSO 5.2mph /  8.4km/h 8.1mph /  13km/h 95% 0.08in /  2.1mm
09:04 55.9 °F /  13.3 °C 54.5 °F /  12.5 °C 29.8in /  1010.3hPa OSO 4.1mph /  6.6km/h 11.5mph /  18.5km/h 95% 0.08in /  2.1mm
09:09 55.8 °F /  13.2 °C 54.3 °F /  12.4 °C 29.8in /  1010.3hPa Oeste 3.6mph /  5.8km/h 12mph /  19.3km/h 95% 0.08in /  2.0mm
09:14 55.8 °F /  13.2 °C 54.3 °F /  12.4 °C 29.8in /  1010.1hPa Oeste 5.3mph /  8.5km/h 12mph /  19.3km/h 95% 0.09in /  2.3mm
09:19 55.8 °F /  13.2 °C 54.3 °F /  12.4 °C 29.8in /  1010.1hPa OSO 6.2mph /  10km/h 12.7mph /  20.4km/h 95% 0.1in /  2.5mm
09:24 55.8 °F /  13.2 °C 54.3 °F /  12.4 °C 29.8in /  1010.2hPa OSO 6.3mph /  10.2km/h 15.9mph /  25.6km/h 95% 0.1in /  2.5mm
09:29 55.8 °F /  13.2 °C 54.3 °F /  12.4 °C 29.8in /  1010.2hPa OSO 6.4mph /  10.3km/h 16.3mph /  26.2km/h 95% 0.08in /  2.0mm
09:34 55.8 °F /  13.2 °C 54.3 °F /  12.4 °C 29.8in /  1010.2hPa SO 8.2mph /  13.2km/h 16mph /  25.7km/h 95% 0.08in /  2.1mm
09:39 55.8 °F /  13.2 °C 54.3 °F /  12.4 °C 29.8in /  1010.3hPa SO 9.2mph /  14.8km/h 15mph /  24.1km/h 95% 0.08in /  2.1mm
09:44 55.8 °F /  13.2 °C 54.3 °F /  12.4 °C 29.8in /  1010.3hPa SO 9.2mph /  14.8km/h 15.2mph /  24.5km/h 95% 0.08in /  2.0mm
09:49 55.8 °F /  13.2 °C 54.3 °F /  12.4 °C 29.8in /  1010.3hPa SSO 9.2mph /  14.8km/h 15mph /  24.1km/h 95% 0.07in /  1.8mm
09:54 55.8 °F /  13.2 °C 54.3 °F /  12.4 °C 29.9in /  1011.0hPa SSO 8.8mph /  14.1km/h 15mph /  24.1km/h 95% 0.08in /  2.0mm
09:59 55.8 °F /  13.2 °C 54.3 °F /  12.4 °C 29.9in /  1011.0hPa SSO 8.5mph /  13.7km/h 16.1mph /  25.9km/h 95% 0.08in /  2.0mm
10:04 55.8 °F /  13.2 °C 54.3 °F /  12.4 °C 29.9in /  1011.0hPa SSO 8.5mph /  13.7km/h 16mph /  25.7km/h 95% 0.09in /  2.3mm
10:09 55.8 °F /  13.2 °C 54.3 °F /  12.4 °C 29.9in /  1011.0hPa SO 8.5mph /  13.7km/h 13mph /  20.9km/h 95% 0.1in /  2.6mm
10:14 55.8 °F /  13.2 °C 54.1 °F /  12.3 °C 29.9in /  1011.0hPa SO 7mph /  11.3km/h 12mph /  19.3km/h 94.3% 0.1in /  2.6mm
10:19 55.8 °F /  13.2 °C 54.1 °F /  12.3 °C 29.9in /  1011.0hPa SO 6.2mph /  10km/h 12mph /  19.3km/h 94% 0.11in /  2.8mm
10:24 55.8 °F /  13.2 °C 54.1 °F /  12.3 °C 29.9in /  1011.0hPa SO 6.6mph /  10.7km/h 11mph /  17.7km/h 94% 0.11in /  2.8mm
10:29 55.8 °F /  13.2 °C 54.1 °F /  12.3 °C 29.9in /  1011.0hPa SO 6.9mph /  11.1km/h 10.4mph /  16.7km/h 94% 0.12in /  3.1mm
10:34 55.8 °F /  13.2 °C 54.1 °F /  12.3 °C 29.9in /  1011.0hPa SSO 5.9mph /  9.5km/h 10mph /  16.1km/h 94% 0.13in /  3.4mm
10:39 55.8 °F /  13.2 °C 54.1 °F /  12.3 °C 29.9in /  1011.0hPa SO 5.4mph /  8.7km/h 11.8mph /  19km/h 94% 0.12in /  3.1mm
10:44 55.8 °F /  13.2 °C 54.1 °F /  12.3 °C 29.8in /  1010.7hPa SO 5.9mph /  9.5km/h 12mph /  19.3km/h 94% 0.12in /  3.1mm
10:49 55.8 °F /  13.2 °C 54.1 °F /  12.3 °C 29.8in /  1010.7hPa SO 6.2mph /  10km/h 12mph /  19.3km/h 93.9% 0.12in /  3.1mm
10:54 55.8 °F /  13.2 °C 53.8 °F /  12.1 °C 29.8in /  1010.7hPa SO 6.2mph /  10km/h 11.8mph /  19km/h 93% 0.12in /  3.1mm
10:59 55.8 °F /  13.2 °C 54 °F /  12.2 °C 29.8in /  1010.3hPa SO 6.2mph /  10km/h 15.2mph /  24.5km/h 93.2% 0.11in /  2.9mm
11:04 55.8 °F /  13.2 °C 53.8 °F /  12.1 °C 29.8in /  1010.3hPa SO 7.5mph /  12.1km/h 15.2mph /  24.5km/h 93% 0.09in /  2.3mm
11:09 55.8 °F /  13.2 °C 53.8 °F /  12.1 °C 29.8in /  1010.3hPa SO 8.1mph /  13km/h 15mph /  24.1km/h 93% 0.08in /  2.0mm
11:14 55.9 °F /  13.3 °C 53.8 °F /  12.1 °C 29.8in /  1010.3hPa SO 8.5mph /  13.7km/h 16.3mph /  26.2km/h 93% 0.08in /  2.0mm
11:19 55.9 °F /  13.3 °C 54 °F /  12.2 °C 29.8in /  1010.3hPa SO 8.7mph /  14km/h 16mph /  25.7km/h 93% 0.07in /  1.8mm
11:24 55.8 °F /  13.2 °C 53.8 °F /  12.1 °C 29.8in /  1010.5hPa SO 8.6mph /  13.8km/h 16.1mph /  25.9km/h 93% 0.05in /  1.3mm
11:29 55.9 °F /  13.3 °C 54 °F /  12.2 °C 29.8in /  1010.5hPa SO 8.5mph /  13.7km/h 16.1mph /  25.9km/h 93% 0.05in /  1.3mm
11:34 55.8 °F /  13.2 °C 53.8 °F /  12.1 °C 29.8in /  1010.5hPa SSO 8.6mph /  13.9km/h 17.3mph /  27.8km/h 93% 0.05in /  1.3mm
11:39 55.8 °F /  13.2 °C 53.8 °F /  12.1 °C 29.8in /  1010.5hPa SO 8.7mph /  14km/h 17mph /  27.4km/h 93% 0.04in /  1.0mm
11:44 55.8 °F /  13.2 °C 53.8 °F /  12.1 °C 29.8in /  1010.5hPa SO 8.3mph /  13.4km/h 15mph /  24.1km/h 93% 0.06in /  1.5mm
11:49 55.8 °F /  13.2 °C 53.8 °F /  12.1 °C 29.8in /  1010.5hPa SO 8.1mph /  13km/h 15.2mph /  24.5km/h 93% 0.05in /  1.3mm
11:54 55.8 °F /  13.2 °C 53.8 °F /  12.1 °C 29.8in /  1010.5hPa OSO 8.1mph /  13km/h 15.2mph /  24.5km/h 93% 0.05in /  1.3mm
11:59 55.8 °F /  13.2 °C 53.8 °F /  12.1 °C 29.8in /  1010.3hPa OSO 8.1mph /  13km/h 15mph /  24.1km/h 93% 0.05in /  1.2mm
12:04 55.8 °F /  13.2 °C 53.8 °F /  12.1 °C 29.8in /  1010.3hPa SO 8.5mph /  13.7km/h 14mph /  22.5km/h 93% 0.06in /  1.5mm
12:09 55.8 °F /  13.2 °C 53.8 °F /  12.1 °C 29.8in /  1010.3hPa SO 8.7mph /  14km/h 13mph /  20.9km/h 93% 0.05in /  1.3mm
12:14 55.8 °F /  13.2 °C 53.6 °F /  12 °C 29.8in /  1010.1hPa SO 7.2mph /  11.6km/h 12mph /  19.3km/h 92.5% 0.06in /  1.6mm
12:19 55.9 °F /  13.3 °C 53.6 °F /  12 °C 29.8in /  1010.1hPa SO 6.4mph /  10.3km/h 10.4mph /  16.7km/h 92.2% 0.06in /  1.6mm
12:24 55.9 °F /  13.3 °C 53.6 °F /  12 °C 29.8in /  1010.6hPa SO 6.3mph /  10.1km/h 11.5mph /  18.5km/h 92% 0.06in /  1.6mm
12:29 55.9 °F /  13.3 °C 53.4 °F /  11.9 °C 29.8in /  1010.6hPa SO 6.2mph /  10km/h 12.7mph /  20.4km/h 91.4% 0.06in /  1.6mm
12:34 56.1 °F /  13.4 °C 53.4 °F /  11.9 °C 29.8in /  1010.6hPa SO 6.3mph /  10.2km/h 13mph /  20.9km/h 91% 0.06in /  1.5mm
12:39 55.9 °F /  13.3 °C 53.4 °F /  11.9 °C 29.8in /  1010.6hPa SO 6.4mph /  10.3km/h 12.5mph /  20.1km/h 91% 0.06in /  1.5mm
12:44 55.9 °F /  13.3 °C 53.1 °F /  11.7 °C 29.8in /  1010.3hPa OSO 6.7mph /  10.8km/h 13mph /  20.9km/h 90.3% 0.06in /  1.5mm
12:49 55.9 °F /  13.3 °C 53.1 °F /  11.7 °C 29.8in /  1010.3hPa SO 6.9mph /  11.1km/h 13mph /  20.9km/h 90% 0.04in /  1.0mm
12:54 55.9 °F /  13.3 °C 52.9 °F /  11.6 °C 29.8in /  1010.3hPa OSO 6.9mph /  11.1km/h 12.7mph /  20.4km/h 89.6% 0.04in /  1.0mm
12:59 55.9 °F /  13.3 °C 52.7 °F /  11.5 °C 29.8in /  1010.2hPa OSO 6.9mph /  11.1km/h 13mph /  20.9km/h 89% 0.03in /  0.8mm
13:04 55.9 °F /  13.3 °C 52.7 °F /  11.5 °C 29.8in /  1010.2hPa SO 6.9mph /  11.1km/h 12mph /  19.3km/h 89% 0.03in /  0.8mm
13:09 55.9 °F /  13.3 °C 52.7 °F /  11.5 °C 29.8in /  1010.2hPa SO 6.9mph /  11.1km/h 11.8mph /  19km/h 89% 0.03in /  0.8mm
13:14 55.9 °F /  13.3 °C 52.7 °F /  11.5 °C 29.8in /  1010.1hPa SO 6.6mph /  10.6km/h 12mph /  19.3km/h 89.3% 0.03in /  0.8mm
13:19 55.9 °F /  13.3 °C 52.7 °F /  11.5 °C 29.8in /  1010.1hPa SO 6.4mph /  10.3km/h 11mph /  17.7km/h 89.3% 0.02in /  0.5mm
13:24 55.8 °F /  13.2 °C 52.9 °F /  11.6 °C 29.8in /  1010.1hPa SO 6.3mph /  10.1km/h 9.2mph /  14.8km/h 89.8% 0.02in /  0.5mm
13:29 55.9 °F /  13.3 °C 52.9 °F /  11.6 °C 29.8in /  1010.0hPa SO 6.2mph /  10km/h 8.5mph /  13.7km/h 90% 0.02in /  0.5mm
13:34 55.9 °F /  13.3 °C 52.9 °F /  11.6 °C 29.8in /  1010.0hPa SO 4.9mph /  7.9km/h 9mph /  14.5km/h 90% 0.03in /  0.7mm
13:39 55.8 °F /  13.2 °C 52.9 °F /  11.6 °C 29.8in /  1010.0hPa SO 4.3mph /  6.9km/h 8.1mph /  13km/h 89.9% 0.02in /  0.5mm
13:44 55.8 °F /  13.2 °C 52.9 °F /  11.6 °C 29.8in /  1009.8hPa SO 4.6mph /  7.4km/h 8.1mph /  13km/h 89.7% 0.02in /  0.5mm
13:49 55.9 °F /  13.3 °C 52.9 °F /  11.6 °C 29.8in /  1009.8hPa SO 4.7mph /  7.6km/h 7mph /  11.3km/h 90% 0.02in /  0.5mm
13:54 55.8 °F /  13.2 °C 52.7 °F /  11.5 °C 29.8in /  1009.8hPa OSO 4.2mph /  6.8km/h 8.1mph /  13km/h 89.1% 0.02in /  0.5mm
13:59 55.6 °F /  13.1 °C 52.3 °F /  11.3 °C 29.8in /  1009.6hPa SO 4mph /  6.5km/h 8mph /  12.9km/h 88.8% 0.03in /  0.8mm
14:04 55.6 °F /  13.1 °C 52.3 °F /  11.3 °C 29.8in /  1009.6hPa SO 4.2mph /  6.8km/h 7mph /  11.3km/h 89% 0.03in /  0.8mm
14:09 55.6 °F /  13.1 °C 52.3 °F /  11.3 °C 29.8in /  1009.6hPa SO 4.3mph /  6.9km/h 8.1mph /  13km/h 89% 0.02in /  0.5mm
14:14 55.4 °F /  13 °C 52 °F /  11.1 °C 29.8in /  1009.4hPa SO 4.6mph /  7.4km/h 9.2mph /  14.8km/h 88.4% 0.04in /  1.0mm
14:19 55.2 °F /  12.9 °C 51.8 °F /  11 °C 29.8in /  1009.4hPa SO 4.7mph /  7.6km/h 9mph /  14.5km/h 88.2% 0.04in /  1.0mm
14:24 55 °F /  12.8 °C 51.6 °F /  10.9 °C 29.8in /  1009.4hPa SO 5.2mph /  8.3km/h 9mph /  14.5km/h 88% 0.04in /  1.0mm
14:29 55 °F /  12.8 °C 51.8 °F /  11 °C 29.8in /  1009.2hPa SO 5.4mph /  8.7km/h 9mph /  14.5km/h 88.8% 0.05in /  1.2mm
14:34 55 °F /  12.8 °C 52 °F /  11.1 °C 29.8in /  1009.2hPa SSO 5mph /  8km/h 10.4mph /  16.7km/h 89% 0.05in /  1.3mm
14:39 55 °F /  12.8 °C 52 °F /  11.1 °C 29.8in /  1009.2hPa SO 4.7mph /  7.6km/h 10mph /  16.1km/h 89% 0.06in /  1.6mm
14:44 55 °F /  12.8 °C 52 °F /  11.1 °C 29.8in /  1009.0hPa SO 5mph /  8.1km/h 10mph /  16.1km/h 89% 0.06in /  1.6mm
14:49 55 °F /  12.8 °C 52 °F /  11.1 °C 29.8in /  1009.0hPa SO 5.2mph /  8.4km/h 10.4mph /  16.7km/h 89% 0.07in /  1.8mm
14:54 55.2 °F /  12.9 °C 52 °F /  11.1 °C 29.8in /  1009.0hPa OSO 5.7mph /  9.1km/h 10mph /  16.1km/h 89.3% 0.07in /  1.8mm
14:59 55.4 °F /  13 °C 52.5 °F /  11.4 °C 29.8in /  1008.3hPa SO 5.9mph /  9.5km/h 9mph /  14.5km/h 90.1% 0.07in /  1.8mm
15:04 55.6 °F /  13.1 °C 53.1 °F /  11.7 °C 29.8in /  1008.3hPa SO 5.1mph /  8.2km/h 7mph /  11.3km/h 91% 0.06in /  1.5mm
15:09 55.6 °F /  13.1 °C 52.9 °F /  11.6 °C 29.8in /  1008.3hPa SO 4.7mph /  7.6km/h 9.2mph /  14.8km/h 90.9% 0.06in /  1.5mm
15:14 55.8 °F /  13.2 °C 53.1 °F /  11.7 °C 29.8in /  1007.8hPa SO 5mph /  8.1km/h 9.2mph /  14.8km/h 91% 0.06in /  1.5mm
15:19 55.4 °F /  13 °C 52.7 °F /  11.5 °C 29.8in /  1007.8hPa SO 5.2mph /  8.4km/h 10.7mph /  17.2km/h 90.2% 0.04in /  1.0mm
15:24 55.4 °F /  13 °C 52.5 °F /  11.4 °C 29.8in /  1007.8hPa OSO 6mph /  9.6km/h 11mph /  17.7km/h 90% 0.04in /  1.0mm
15:29 55.6 °F /  13.1 °C 52.7 °F /  11.5 °C 29.8in /  1007.6hPa OSO 6.4mph /  10.3km/h 10mph /  16.1km/h 90% 0.03in /  0.8mm
15:34 55.6 °F /  13.1 °C 52.7 °F /  11.5 °C 29.8in /  1007.6hPa OSO 5.7mph /  9.2km/h 10.2mph /  16.4km/h 90% 0.03in /  0.8mm
15:39 55.6 °F /  13.1 °C 52.3 °F /  11.3 °C 29.8in /  1007.6hPa SO 5.4mph /  8.7km/h 10.4mph /  16.7km/h 89.1% 0.02in /  0.5mm
15:44 55.8 °F /  13.2 °C 52.7 °F /  11.5 °C 29.7in /  1007.0hPa SO 5.4mph /  8.7km/h 9.2mph /  14.8km/h 89.8% 0.01in /  0.2mm
15:49 55.8 °F /  13.2 °C 52.9 °F /  11.6 °C 29.7in /  1007.0hPa SO 5.4mph /  8.7km/h 13.8mph /  22.2km/h 90% 0.01in /  0.2mm
15:54 55.8 °F /  13.2 °C 52.7 °F /  11.5 °C 29.8in /  1007.4hPa SSO 6.4mph /  10.3km/h 14mph /  22.5km/h 89.5% 0in /  0.0mm
15:59 55.8 °F /  13.2 °C 52.5 °F /  11.4 °C 29.8in /  1007.4hPa SSO 6.9mph /  11.1km/h 13mph /  20.9km/h 88.8% 0in /  0.0mm
16:04 55.9 °F /  13.3 °C 52.3 °F /  11.3 °C 29.8in /  1007.4hPa SSO 6.9mph /  11.1km/h 14mph /  22.5km/h 88% 0in /  0.0mm
16:09 55.9 °F /  13.3 °C 52.3 °F /  11.3 °C 29.8in /  1007.5hPa SSO 6.9mph /  11.1km/h 15mph /  24.1km/h 88% 0in /  0.0mm
16:14 55.9 °F /  13.3 °C 52.5 °F /  11.4 °C 29.8in /  1007.5hPa SSO 7.7mph /  12.4km/h 15mph /  24.1km/h 88% 0in /  0.0mm
16:19 55.9 °F /  13.3 °C 52.3 °F /  11.3 °C 29.8in /  1007.5hPa SSO 8.1mph /  13km/h 13mph /  20.9km/h 88% 0in /  0.0mm
16:24 55.9 °F /  13.3 °C 52.3 °F /  11.3 °C 29.8in /  1007.5hPa SO 7.8mph /  12.5km/h 12mph /  19.3km/h 88% 0in /  0.0mm
16:29 55.9 °F /  13.3 °C 52.3 °F /  11.3 °C 29.7in /  1007.3hPa OSO 7.6mph /  12.2km/h 12mph /  19.3km/h 88% 0.01in /  0.3mm
16:34 55.9 °F /  13.3 °C 52.3 °F /  11.3 °C 29.7in /  1007.3hPa SO 6.7mph /  10.8km/h 13mph /  20.9km/h 88% 0.01in /  0.3mm
16:39 55.9 °F /  13.3 °C 52.5 °F /  11.4 °C 29.8in /  1007.4hPa Sur 6.2mph /  10km/h 13mph /  20.9km/h 88.4% 0.01in /  0.3mm
16:44 56.1 °F /  13.4 °C 52.9 °F /  11.6 °C 29.8in /  1007.4hPa SO 6.3mph /  10.2km/h 10mph /  16.1km/h 89% 0.01in /  0.3mm
16:49 56.1 °F /  13.4 °C 52.5 °F /  11.4 °C 29.8in /  1007.4hPa SO 6.4mph /  10.3km/h 10.4mph /  16.7km/h 88.2% 0.01in /  0.3mm
16:54 56.1 °F /  13.4 °C 52.5 °F /  11.4 °C 29.8in /  1007.4hPa SSO 5.7mph /  9.1km/h 10mph /  16.1km/h 88% 0.01in /  0.3mm
16:59 56.3 °F /  13.5 °C 52.7 °F /  11.5 °C 29.7in /  1007.0hPa SSO 5.2mph /  8.4km/h 8mph /  12.9km/h 88% 0.01in /  0.3mm
17:04 56.5 °F /  13.6 °C 52.9 °F /  11.6 °C 29.7in /  1007.0hPa SSO 4.6mph /  7.4km/h 9.2mph /  14.8km/h 87.5% 0.01in /  0.3mm
17:09 56.5 °F /  13.6 °C 52.5 °F /  11.4 °C 29.7in /  1007.2hPa SSO 4.3mph /  6.9km/h 12.7mph /  20.4km/h 86.4% 0.01in /  0.3mm
17:14 56.7 °F /  13.7 °C 52.5 °F /  11.4 °C 29.7in /  1007.2hPa SSO 6mph /  9.7km/h 13mph /  20.9km/h 86% 0.01in /  0.3mm
17:19 56.7 °F /  13.7 °C 52.5 °F /  11.4 °C 29.7in /  1007.2hPa SSO 6.9mph /  11.1km/h 12mph /  19.3km/h 86% 0.01in /  0.3mm
17:24 56.7 °F /  13.7 °C 52.3 °F /  11.3 °C 29.7in /  1007.3hPa SSO 6.9mph /  11.1km/h 12mph /  19.3km/h 85.5% 0.01in /  0.3mm
17:29 56.8 °F /  13.8 °C 52.5 °F /  11.4 °C 29.7in /  1007.3hPa SSO 6.9mph /  11.1km/h 10.4mph /  16.7km/h 85.8% 0in /  0.0mm
17:34 56.8 °F /  13.8 °C 52.7 °F /  11.5 °C 29.7in /  1007.3hPa SSO 6.2mph /  10km/h 10mph /  16.1km/h 86% 0in /  0.0mm
17:39 56.8 °F /  13.8 °C 52.5 °F /  11.4 °C 29.7in /  1007.3hPa SSO 5.9mph /  9.5km/h 8.5mph /  13.7km/h 85.3% 0in /  0.0mm
17:44 56.8 °F /  13.8 °C 52.3 °F /  11.3 °C 29.7in /  1007.0hPa SSO 5.5mph /  8.8km/h 9.7mph /  15.6km/h 85% 0in /  0.0mm
17:49 56.8 °F /  13.8 °C 52.3 °F /  11.3 °C 29.7in /  1007.0hPa SSO 5.2mph /  8.4km/h 10mph /  16.1km/h 85% 0in /  0.0mm
17:54 56.8 °F /  13.8 °C 52.3 °F /  11.3 °C 29.7in /  1007.0hPa SSO 4.8mph /  7.8km/h 9mph /  14.5km/h 85% 0in /  0.0mm
17:59 56.8 °F /  13.8 °C 52.5 °F /  11.4 °C 29.7in /  1006.8hPa SSO 4.7mph /  7.6km/h 8.5mph /  13.7km/h 84.9% 0in /  0.0mm
18:04 57 °F /  13.9 °C 52.3 °F /  11.3 °C 29.7in /  1006.8hPa SSO 5.5mph /  8.9km/h 9.7mph /  15.6km/h 84.3% 0in /  0.0mm
18:09 57 °F /  13.9 °C 52.2 °F /  11.2 °C 29.7in /  1006.9hPa SSO 5.9mph /  9.5km/h 10mph /  16.1km/h 84% 0in /  0.0mm
18:14 57 °F /  13.9 °C 52.2 °F /  11.2 °C 29.7in /  1006.9hPa SSO 5.9mph /  9.5km/h 9mph /  14.5km/h 84% 0in /  0.0mm
18:19 57 °F /  13.9 °C 52.2 °F /  11.2 °C 29.7in /  1006.9hPa SSO 5.9mph /  9.5km/h 9.2mph /  14.8km/h 84% 0in /  0.0mm
18:24 57 °F /  13.9 °C 52.2 °F /  11.2 °C 29.7in /  1006.9hPa Sur 5.6mph /  9km/h 9.2mph /  14.8km/h 84.1% 0in /  0.0mm
18:29 57 °F /  13.9 °C 52.5 °F /  11.4 °C 29.7in /  1006.8hPa Sur 5.4mph /  8.7km/h 9mph /  14.5km/h 84.8% 0in /  0.0mm
18:34 57 °F /  13.9 °C 52.5 °F /  11.4 °C 29.7in /  1006.8hPa Sur 5.3mph /  8.5km/h 8.5mph /  13.7km/h 85% 0in /  0.0mm
18:39 57 °F /  13.9 °C 52.5 °F /  11.4 °C 29.7in /  1006.9hPa Sur 5.2mph /  8.4km/h 9.2mph /  14.8km/h 84.6% 0in /  0.0mm
18:44 57 °F /  13.9 °C 52.5 °F /  11.4 °C 29.7in /  1006.9hPa Sur 4.6mph /  7.4km/h 9mph /  14.5km/h 84.6% 0in /  0.0mm
18:49 57 °F /  13.9 °C 52.5 °F /  11.4 °C 29.7in /  1006.9hPa SSO 4.3mph /  6.9km/h 7mph /  11.3km/h 85% 0in /  0.0mm
18:54 57 °F /  13.9 °C 52.5 °F /  11.4 °C 29.7in /  1006.9hPa SO 3.9mph /  6.2km/h 7mph /  11.3km/h 85% 0in /  0.0mm
18:59 57 °F /  13.9 °C 52.3 °F /  11.3 °C 29.7in /  1006.6hPa SSO 3.6mph /  5.8km/h 5mph /  8km/h 84.5% 0in /  0.0mm
19:04 57 °F /  13.9 °C 52.2 °F /  11.2 °C 29.7in /  1006.6hPa SSO 3.1mph /  5km/h 8.1mph /  13km/h 84% 0in /  0.0mm
19:09 57 °F /  13.9 °C 52.3 °F /  11.3 °C 29.7in /  1006.8hPa Sur 2.9mph /  4.7km/h 8.1mph /  13km/h 84.5% 0in /  0.0mm
19:14 57 °F /  13.9 °C 52.5 °F /  11.4 °C 29.7in /  1006.8hPa SSO 3.9mph /  6.2km/h 8.1mph /  13km/h 84.6% 0in /  0.0mm
19:19 56.8 °F /  13.8 °C 52.3 °F /  11.3 °C 29.7in /  1006.8hPa OSO 4.3mph /  6.9km/h 8.7mph /  14km/h 84.8% 0in /  0.0mm
19:24 56.8 °F /  13.8 °C 52.2 °F /  11.2 °C 29.7in /  1006.8hPa SO 4.9mph /  7.9km/h 9.2mph /  14.8km/h 84% 0in /  0.0mm
19:29 56.8 °F /  13.8 °C 52 °F /  11.1 °C 29.7in /  1006.2hPa SSO 5.2mph /  8.4km/h 11.5mph /  18.5km/h 83.9% 0in /  0.0mm
19:34 56.8 °F /  13.8 °C 51.8 °F /  11 °C 29.7in /  1006.2hPa SO 5.3mph /  8.6km/h 12mph /  19.3km/h 83.3% 0in /  0.0mm
19:39 57 °F /  13.9 °C 52 °F /  11.1 °C 29.7in /  1006.2hPa SSO 5.4mph /  8.7km/h 11.5mph /  18.5km/h 83% 0in /  0.0mm
19:44 57 °F /  13.9 °C 52 °F /  11.1 °C 29.7in /  1006.1hPa SSO 5.4mph /  8.7km/h 12mph /  19.3km/h 83% 0in /  0.0mm
19:49 57 °F /  13.9 °C 52 °F /  11.1 °C 29.7in /  1006.1hPa SSO 5.4mph /  8.7km/h 10.2mph /  16.4km/h 83% 0in /  0.0mm
19:54 57 °F /  13.9 °C 52.2 °F /  11.2 °C 29.7in /  1006.6hPa Sur 6.1mph /  9.8km/h 10.4mph /  16.7km/h 83.7% 0in /  0.0mm
19:59 57 °F /  13.9 °C 52.2 °F /  11.2 °C 29.7in /  1006.6hPa SSO 6.4mph /  10.3km/h 10.4mph /  16.7km/h 84% 0in /  0.0mm
20:04 56.8 °F /  13.8 °C 52.2 °F /  11.2 °C 29.7in /  1006.6hPa SSE 6.3mph /  10.1km/h 10mph /  16.1km/h 84.2% 0in /  0.0mm
20:09 56.8 °F /  13.8 °C 52.3 °F /  11.3 °C 29.7in /  1006.6hPa Sur 6.2mph /  10km/h 8mph /  12.9km/h 85% 0in /  0.0mm
20:14 56.8 °F /  13.8 °C 52.5 °F /  11.4 °C 29.7in /  1006.2hPa Sur 4.7mph /  7.6km/h 7mph /  11.3km/h 85.5% 0in /  0.0mm
20:19 56.7 °F /  13.7 °C 52.5 °F /  11.4 °C 29.7in /  1006.2hPa Sur 4mph /  6.5km/h 6mph /  9.7km/h 86% 0in /  0.0mm
20:24 56.7 °F /  13.7 °C 52.5 °F /  11.4 °C 29.7in /  1006.5hPa Sur 4mph /  6.5km/h 8.1mph /  13km/h 86% 0in /  0.0mm
20:29 56.7 °F /  13.7 °C 52.7 °F /  11.5 °C 29.7in /  1006.5hPa SSO 4mph /  6.5km/h 8mph /  12.9km/h 86.8% 0in /  0.0mm
20:34 56.7 °F /  13.7 °C 52.9 °F /  11.6 °C 29.7in /  1006.5hPa SO 4.5mph /  7.2km/h 8.5mph /  13.7km/h 87% 0in /  0.0mm
20:39 56.7 °F /  13.7 °C 52.7 °F /  11.5 °C 29.7in /  1006.5hPa OSO 4.7mph /  7.6km/h 9.2mph /  14.8km/h 86.6% 0in /  0.0mm
20:44 56.7 °F /  13.7 °C 52.3 °F /  11.3 °C 29.7in /  1006.3hPa SO 4.7mph /  7.6km/h 10.7mph /  17.2km/h 85.5% 0in /  0.0mm
20:49 56.8 °F /  13.8 °C 52.3 °F /  11.3 °C 29.7in /  1006.3hPa SSO 4.7mph /  7.6km/h 11mph /  17.7km/h 85% 0in /  0.0mm
20:54 56.8 °F /  13.8 °C 52.2 °F /  11.2 °C 29.7in /  1006.5hPa SSO 5.7mph /  9.2km/h 11.4mph /  18.3km/h 84.1% 0in /  0.0mm
20:59 56.8 °F /  13.8 °C 52.2 °F /  11.2 °C 29.7in /  1006.5hPa SSO 6.2mph /  10km/h 13mph /  20.9km/h 84% 0in /  0.0mm
21:04 56.8 °F /  13.8 °C 52.2 °F /  11.2 °C 29.7in /  1006.5hPa SSO 6.2mph /  10km/h 13mph /  20.9km/h 84.1% 0in /  0.0mm
21:09 56.7 °F /  13.7 °C 52 °F /  11.1 °C 29.7in /  1006.8hPa Sur 6.2mph /  10km/h 9.7mph /  15.6km/h 84.1% 0in /  0.0mm
21:14 56.7 °F /  13.7 °C 51.6 °F /  10.9 °C 29.7in /  1006.8hPa SSO 5.5mph /  8.9km/h 10mph /  16.1km/h 83.2% 0in /  0.0mm
21:19 56.7 °F /  13.7 °C 51.4 °F /  10.8 °C 29.7in /  1006.8hPa Sur 5.2mph /  8.4km/h 7mph /  11.3km/h 82.7% 0in /  0.0mm
21:24 56.7 °F /  13.7 °C 51.1 °F /  10.6 °C 29.7in /  1006.9hPa SSO 4.8mph /  7.8km/h 8.1mph /  13km/h 81.8% 0in /  0.0mm
21:29 56.7 °F /  13.7 °C 50.9 °F /  10.5 °C 29.7in /  1006.9hPa SO 4.7mph /  7.6km/h 8.1mph /  13km/h 81% 0in /  0.0mm
21:34 56.7 °F /  13.7 °C 50.9 °F /  10.5 °C 29.7in /  1006.9hPa OSO 3.9mph /  6.3km/h 6mph /  9.7km/h 81% 0in /  0.0mm
21:39 56.7 °F /  13.7 °C 50.9 °F /  10.5 °C 29.7in /  1007.0hPa SO 3.6mph /  5.8km/h 6.2mph /  10km/h 81% 0in /  0.0mm
21:44 56.5 °F /  13.6 °C 50.7 °F /  10.4 °C 29.7in /  1007.0hPa SSO 3.6mph /  5.8km/h 8.5mph /  13.7km/h 80.8% 0in /  0.0mm
21:49 56.5 °F /  13.6 °C 50.7 °F /  10.4 °C 29.7in /  1007.0hPa SO 3.6mph /  5.8km/h 9mph /  14.5km/h 81% 0in /  0.0mm
21:54 56.5 °F /  13.6 °C 51.1 °F /  10.6 °C 29.7in /  1007.1hPa SO 4mph /  6.5km/h 8mph /  12.9km/h 81.9% 0in /  0.0mm
21:59 56.5 °F /  13.6 °C 51.3 °F /  10.7 °C 29.7in /  1007.1hPa SO 4.3mph /  6.9km/h 8.7mph /  14km/h 82.6% 0in /  0.0mm
22:04 56.3 °F /  13.5 °C 51.4 °F /  10.8 °C 29.7in /  1007.1hPa OSO 4.9mph /  7.9km/h 9.2mph /  14.8km/h 83.4% 0in /  0.0mm
22:09 56.3 °F /  13.5 °C 51.4 °F /  10.8 °C 29.7in /  1007.1hPa OSO 5.2mph /  8.4km/h 8.5mph /  13.7km/h 84.2% 0in /  0.0mm
22:14 56.1 °F /  13.4 °C 51.6 °F /  10.9 °C 29.7in /  1007.0hPa OSO 4.8mph /  7.8km/h 9mph /  14.5km/h 85% 0in /  0.0mm
22:19 56.1 °F /  13.4 °C 52 °F /  11.1 °C 29.7in /  1007.0hPa SSO 4.7mph /  7.6km/h 9mph /  14.5km/h 86% 0in /  0.0mm
22:24 56.1 °F /  13.4 °C 52.2 °F /  11.2 °C 29.7in /  1007.0hPa SSO 4mph /  6.4km/h 6mph /  9.7km/h 86.4% 0in /  0.0mm
22:29 56.1 °F /  13.4 °C 52.3 °F /  11.3 °C 29.7in /  1007.0hPa SSO 3.6mph /  5.8km/h 8.1mph /  13km/h 87% 0in /  0.0mm
22:34 56.1 °F /  13.4 °C 52.3 °F /  11.3 °C 29.7in /  1007.0hPa Sur 3.9mph /  6.2km/h 8.1mph /  13km/h 87% 0in /  0.0mm
22:39 56.1 °F /  13.4 °C 52.3 °F /  11.3 °C 29.7in /  1007.0hPa Sur 4mph /  6.5km/h 7.4mph /  11.9km/h 87% 0in /  0.0mm
22:44 56.1 °F /  13.4 °C 52.3 °F /  11.3 °C 29.7in /  1007.0hPa Sur 4.5mph /  7.2km/h 8.1mph /  13km/h 87% 0in /  0.0mm
22:49 55.9 °F /  13.3 °C 52.2 °F /  11.2 °C 29.7in /  1007.0hPa Sur 4.7mph /  7.6km/h 8.1mph /  13km/h 87.4% 0in /  0.0mm
22:54 55.9 °F /  13.3 °C 52.3 °F /  11.3 °C 29.7in /  1007.2hPa Sur 4.7mph /  7.6km/h 9.2mph /  14.8km/h 88% 0in /  0.0mm
22:59 55.8 °F /  13.2 °C 52.3 °F /  11.3 °C 29.7in /  1007.2hPa Sur 4.7mph /  7.6km/h 9.2mph /  14.8km/h 88% 0in /  0.0mm
23:04 55.8 °F /  13.2 °C 52.3 °F /  11.3 °C 29.7in /  1007.2hPa Sur 5.2mph /  8.3km/h 9mph /  14.5km/h 88% 0in /  0.0mm
23:09 55.8 °F /  13.2 °C 52.3 °F /  11.3 °C 29.7in /  1007.2hPa SSO 5.4mph /  8.7km/h 8.1mph /  13km/h 88% 0in /  0.0mm
23:14 55.8 °F /  13.2 °C 52.3 °F /  11.3 °C 29.7in /  1007.1hPa SSO 4.9mph /  7.9km/h 10.7mph /  17.2km/h 88% 0in /  0.0mm
23:19 55.9 °F /  13.3 °C 52.3 °F /  11.3 °C 29.7in /  1007.1hPa SSO 4.7mph /  7.6km/h 11.5mph /  18.5km/h 88% 0in /  0.0mm
23:24 55.9 °F /  13.3 °C 52.3 °F /  11.3 °C 29.7in /  1007.1hPa SSO 5.7mph /  9.1km/h 12mph /  19.3km/h 88% 0in /  0.0mm
23:29 55.9 °F /  13.3 °C 52.3 °F /  11.3 °C 29.7in /  1007.1hPa SSO 6.2mph /  10km/h 10mph /  16.1km/h 88% 0in /  0.0mm
23:34 55.9 °F /  13.3 °C 52.3 °F /  11.3 °C 29.7in /  1007.1hPa SSO 6mph /  9.7km/h 10.7mph /  17.2km/h 88% 0in /  0.0mm
23:39 55.9 °F /  13.3 °C 52.7 °F /  11.5 °C 29.7in /  1007.1hPa SSO 5.9mph /  9.5km/h 11mph /  17.7km/h 88.9% 0in /  0.0mm
23:44 55.9 °F /  13.3 °C 52.7 °F /  11.5 °C 29.7in /  1007.0hPa SSO 6.2mph /  10km/h 11.8mph /  19km/h 89% 0in /  0.0mm
23:49 55.9 °F /  13.3 °C 52.7 °F /  11.5 °C 29.7in /  1007.0hPa SSO 6.4mph /  10.3km/h 12mph /  19.3km/h 89% 0in /  0.0mm
23:54 55.9 °F /  13.3 °C 52.7 °F /  11.5 °C 29.7in /  1007.1hPa SO 5.7mph /  9.2km/h 12mph /  19.3km/h 89% 0in /  0.0mm
23:59 56.1 °F /  13.4 °C 52.9 °F /  11.6 °C 29.7in /  1007.1hPa SSO 5.4mph /  8.7km/h 9mph /  14.5km/h 89% 0in /  0.0mm
Murcia-Puente Tocinos, España
Compliments of Weather Underground - 3 mb

La estación de MeteoMurcia.com, publica sus datos en los siguientes proyectos:

Weather Underground PWS IMURCIAP2 Meteoclimatic www.awekas.at

W3Counter
Web Analytics